Elberon, Iowa
Current Conditions -  °F | °C
As of 9:35 AM on Friday 24 Oct 2014 (Local Time) from KVTI Reporting Station
Moderate Rain Moderate Rain  
Wind Chill: 50°   Ceiling: 100
Heat Index: 50°   Visibility: 0mi
Dew Point: 49°   Wind: 9mph
Humidity: 96%   Direction: 160°SSE
Pressure: 30.01"   Gusts: NA
Location:  42.01°N, 92.32°W
Report Text: KVTI 241435Z AUTO 16008KT M1/4SM RA OVC001 10/10 A3001 RMK AO2 T01010095
Loading
Personal Weather Stations






























Interactive Weather Map
Tropical Storm Tracking
New forecast layout! Learn more

10-Day Weather Forecast

Advertisements
Track Severe Weather on mobile